sensor_id;sensor_type;location;lat;lon;timestamp;pressure;altitude;pressure_sealevel;temperature;humidity
64862;BME280;62652;42.274;-71.436;2023-03-16T00:00:01;100180.0;;;2.5;unknown
64862;BME280;62652;42.274;-71.436;2023-03-16T00:01:02;100180.0;;;2.5;unknown
64862;BME280;62652;42.274;-71.436;2023-03-16T00:02:01;100190.0;;;2.5;unknown
64862;BME280;62652;42.274;-71.436;2023-03-16T00:03:01;100190.0;;;2.5;unknown
64862;BME280;62652;42.274;-71.436;2023-03-16T00:04:00;100190.0;;;2.3888888888888875;unknown
64862;BME280;62652;42.274;-71.436;2023-03-16T00:05:00;100190.0;;;2.5;unknown
64862;BME280;62652;42.274;-71.436;2023-03-16T00:06:01;100190.0;;;2.5;unknown
64862;BME280;62652;42.274;-71.436;2023-03-16T00:07:00;100190.0;;;2.3888888888888875;unknown
64862;BME280;62652;42.274;-71.436;2023-03-16T00:08:00;100180.0;;;2.3888888888888875;unknown
64862;BME280;62652;42.274;-71.436;2023-03-16T00:09:00;100190.0;;;2.3888888888888875;unknown
64862;BME280;62652;42.274;-71.436;2023-03-16T00:10:00;100200.0;;;2.3888888888888875;unknown
64862;BME280;62652;42.274;-71.436;2023-03-16T00:11:01;100200.0;;;2.3888888888888875;unknown
64862;BME280;62652;42.274;-71.436;2023-03-16T00:12:01;100200.0;;;2.3888888888888875;unknown
64862;BME280;62652;42.274;-71.436;2023-03-16T00:13:01;100210.0;;;2.2777777777777786;unknown
64862;BME280;62652;42.274;-71.436;2023-03-16T00:14:00;100210.0;;;2.2777777777777786;unknown
64862;BME280;62652;42.274;-71.436;2023-03-16T00:15:01;100210.0;;;2.2777777777777786;unknown
64862;BME280;62652;42.274;-71.436;2023-03-16T00:16:02;100210.0;;;2.3888888888888875;unknown
64862;BME280;62652;42.274;-71.436;2023-03-16T00:17:00;100210.0;;;2.3888888888888875;unknown
64862;BME280;62652;42.274;-71.436;2023-03-16T00:18:00;100220.0;;;2.3888888888888875;unknown
64862;BME280;62652;42.274;-71.436;2023-03-16T00:19:01;100220.0;;;2.3888888888888875;unknown
64862;BME280;62652;42.274;-71.436;2023-03-16T00:20:01;100210.0;;;2.2777777777777786;unknown
64862;BME280;62652;42.274;-71.436;2023-03-16T00:21:01;100220.0;;;2.2777777777777786;unknown
64862;BME280;62652;42.274;-71.436;2023-03-16T00:22:00;100220.0;;;2.2777777777777786;unknown
64862;BME280;62652;42.274;-71.436;2023-03-16T00:23:00;100230.0;;;2.2777777777777786;unknown
64862;BME280;62652;42.274;-71.436;2023-03-16T00:24:00;100220.0;;;2.3888888888888875;unknown
64862;BME280;62652;42.274;-71.436;2023-03-16T00:25:01;100230.0;;;2.3888888888888875;unknown
64862;BME280;62652;42.274;-71.436;2023-03-16T00:26:03;100230.0;;;2.2777777777777786;unknown
64862;BME280;62652;42.274;-71.436;2023-03-16T00:27:00;100240.0;;;2.2777777777777786;unknown
64862;BME280;62652;42.274;-71.436;2023-03-16T00:28:00;100230.0;;;2.2777777777777786;unknown
64862;BME280;62652;42.274;-71.436;2023-03-16T00:29:00;100250.0;;;2.3888888888888875;unknown
64862;BME280;62652;42.274;-71.436;2023-03-16T00:30:00;100230.0;;;2.3888888888888875;unknown
64862;BME280;62652;42.274;-71.436;2023-03-16T00:31:01;100240.0;;;2.3888888888888875;unknown
64862;BME280;62652;42.274;-71.436;2023-03-16T00:32:01;100250.0;;;2.3888888888888875;unknown
64862;BME280;62652;42.274;-71.436;2023-03-16T00:33:01;100250.0;;;2.3888888888888875;unknown
64862;BME280;62652;42.274;-71.436;2023-03-16T00:34:00;100240.0;;;2.2777777777777786;unknown
64862;BME280;62652;42.274;-71.436;2023-03-16T00:35:01;100250.0;;;2.3888888888888875;unknown
64862;BME280;62652;42.274;-71.436;2023-03-16T00:36:01;100250.0;;;2.2777777777777786;unknown
64862;BME280;62652;42.274;-71.436;2023-03-16T00:37:00;100250.0;;;2.3888888888888875;unknown
64862;BME280;62652;42.274;-71.436;2023-03-16T00:38:01;100250.0;;;2.3888888888888875;unknown
64862;BME280;62652;42.274;-71.436;2023-03-16T00:39:00;100250.0;;;2.2777777777777786;unknown
64862;BME280;62652;42.274;-71.436;2023-03-16T00:40:00;100250.0;;;2.2777777777777786;unknown
64862;BME280;62652;42.274;-71.436;2023-03-16T00:41:01;100250.0;;;2.2777777777777786;unknown
64862;BME280;62652;42.274;-71.436;2023-03-16T00:42:01;100250.0;;;2.2777777777777786;unknown
64862;BME280;62652;42.274;-71.436;2023-03-16T00:43:01;100250.0;;;2.2777777777777786;unknown
64862;BME280;62652;42.274;-71.436;2023-03-16T00:44:00;100260.0;;;2.2777777777777786;unknown
64862;BME280;62652;42.274;-71.436;2023-03-16T00:45:01;100250.0;;;2.2777777777777786;unknown
64862;BME280;62652;42.274;-71.436;2023-03-16T00:46:00;100260.0;;;2.3888888888888875;unknown
64862;BME280;62652;42.274;-71.436;2023-03-16T00:47:00;100250.0;;;2.2777777777777786;unknown
64862;BME280;62652;42.274;-71.436;2023-03-16T00:48:01;100260.0;;;2.2777777777777786;unknown
64862;BME280;62652;42.274;-71.436;2023-03-16T00:49:01;100270.0;;;2.2777777777777786;unknown
64862;BME280;62652;42.274;-71.436;2023-03-16T00:50:01;100260.0;;;2.2777777777777786;unknown
64862;BME280;62652;42.274;-71.436;2023-03-16T00:51:01;100270.0;;;2.2777777777777786;unknown
64862;BME280;62652;42.274;-71.436;2023-03-16T00:52:01;100280.0;;;2.2777777777777786;unknown
64862;BME280;62652;42.274;-71.436;2023-03-16T00:53:01;100270.0;;;2.2777777777777786;unknown
64862;BME280;62652;42.274;-71.436;2023-03-16T00:54:01;100280.0;;;2.2777777777777786;unknown
64862;BME280;62652;42.274;-71.436;2023-03-16T00:55:00;100280.0;;;2.2777777777777786;unknown
64862;BME280;62652;42.274;-71.436;2023-03-16T00:56:01;100280.0;;;2.2777777777777786;unknown
64862;BME280;62652;42.274;-71.436;2023-03-16T00:57:01;100280.0;;;2.2777777777777786;unknown
64862;BME280;62652;42.274;-71.436;2023-03-16T00:58:00;100280.0;;;2.2777777777777786;unknown
64862;BME280;62652;42.274;-71.436;2023-03-16T00:59:00;100280.0;;;2.2777777777777786;unknown
64862;BME280;62652;42.274;-71.436;2023-03-16T01:00:01;100290.0;;;2.2777777777777786;unknown
64862;BME280;62652;42.274;-71.436;2023-03-16T01:01:00;100290.0;;;2.2777777777777786;unknown
64862;BME280;62652;42.274;-71.436;2023-03-16T01:02:01;100290.0;;;2.2777777777777786;unknown
64862;BME280;62652;42.274;-71.436;2023-03-16T01:03:00;100290.0;;;2.3888888888888875;unknown
64862;BME280;62652;42.274;-71.436;2023-03-16T01:04:00;100290.0;;;2.3888888888888875;unknown
64862;BME280;62652;42.274;-71.436;2023-03-16T01:05:00;100290.0;;;2.3888888888888875;unknown
64862;BME280;62652;42.274;-71.436;2023-03-16T01:06:03;100290.0;;;2.3888888888888875;unknown
64862;BME280;62652;42.274;-71.436;2023-03-16T01:07:00;100290.0;;;2.5;unknown
64862;BME280;62652;42.274;-71.436;2023-03-16T01:08:00;100300.0;;;2.3888888888888875;unknown
64862;BME280;62652;42.274;-71.436;2023-03-16T01:09:00;100300.0;;;2.2777777777777786;unknown
64862;BME280;62652;42.274;-71.436;2023-03-16T01:10:01;100300.0;;;2.2777777777777786;unknown
64862;BME280;62652;42.274;-71.436;2023-03-16T01:11:03;100300.0;;;2.2777777777777786;unknown
64862;BME280;62652;42.274;-71.436;2023-03-16T01:12:01;100300.0;;;2.2777777777777786;unknown
64862;BME280;62652;42.274;-71.436;2023-03-16T01:13:01;100290.0;;;2.2777777777777786;unknown
64862;BME280;62652;42.274;-71.436;2023-03-16T01:14:01;100300.0;;;2.2777777777777786;unknown
64862;BME280;62652;42.274;-71.436;2023-03-16T01:15:00;100300.0;;;2.3888888888888875;unknown
64862;BME280;62652;42.274;-71.436;2023-03-16T01:16:01;100310.0;;;2.3888888888888875;unknown
64862;BME280;62652;42.274;-71.436;2023-03-16T01:17:01;100290.0;;;2.3888888888888875;unknown
64862;BME280;62652;42.274;-71.436;2023-03-16T01:18:00;100300.0;;;2.3888888888888875;unknown
64862;BME280;62652;42.274;-71.436;2023-03-16T01:19:01;100300.0;;;2.3888888888888875;unknown
64862;BME280;62652;42.274;-71.436;2023-03-16T01:20:01;100300.0;;;2.3888888888888875;unknown
64862;BME280;62652;42.274;-71.436;2023-03-16T01:21:02;100300.0;;;2.3888888888888875;unknown
64862;BME280;62652;42.274;-71.436;2023-03-16T01:22:01;100300.0;;;2.3888888888888875;unknown
64862;BME280;62652;42.274;-71.436;2023-03-16T01:23:00;100300.0;;;2.3888888888888875;unknown
64862;BME280;62652;42.274;-71.436;2023-03-16T01:24:00;100310.0;;;2.2777777777777786;unknown
64862;BME280;62652;42.274;-71.436;2023-03-16T01:25:00;100310.0;;;2.2777777777777786;unknown
64862;BME280;62652;42.274;-71.436;2023-03-16T01:26:00;100310.0;;;2.2777777777777786;unknown
64862;BME280;62652;42.274;-71.436;2023-03-16T01:27:01;100310.0;;;2.2777777777777786;unknown
64862;BME280;62652;42.274;-71.436;2023-03-16T01:28:00;100310.0;;;2.3888888888888875;unknown
64862;BME280;62652;42.274;-71.436;2023-03-16T01:29:01;100310.0;;;2.3888888888888875;unknown
64862;BME280;62652;42.274;-71.436;2023-03-16T01:30:00;100320.0;;;2.2777777777777786;unknown
64862;BME280;62652;42.274;-71.436;2023-03-16T01:31:03;100320.0;;;2.2777777777777786;unknown
64862;BME280;62652;42.274;-71.436;2023-03-16T01:32:01;100320.0;;;2.2777777777777786;unknown
64862;BME280;62652;42.274;-71.436;2023-03-16T01:33:01;100320.0;;;2.2777777777777786;unknown
64862;BME280;62652;42.274;-71.436;2023-03-16T01:34:00;100320.0;;;2.2777777777777786;unknown
64862;BME280;62652;42.274;-71.436;2023-03-16T01:35:01;100320.0;;;2.3888888888888875;unknown
64862;BME280;62652;42.274;-71.436;2023-03-16T01:36:03;100320.0;;;2.2777777777777786;unknown
64862;BME280;62652;42.274;-71.436;2023-03-16T01:37:01;100330.0;;;2.3888888888888875;unknown
64862;BME280;62652;42.274;-71.436;2023-03-16T01:38:00;100330.0;;;2.3888888888888875;unknown
64862;BME280;62652;42.274;-71.436;2023-03-16T01:39:01;100330.0;;;2.3888888888888875;unknown
64862;BME280;62652;42.274;-71.436;2023-03-16T01:40:00;100320.0;;;2.3888888888888875;unknown
64862;BME280;62652;42.274;-71.436;2023-03-16T01:41:01;100330.0;;;2.2777777777777786;unknown
64862;BME280;62652;42.274;-71.436;2023-03-16T01:42:00;100320.0;;;2.2777777777777786;unknown
64862;BME280;62652;42.274;-71.436;2023-03-16T01:43:03;100330.0;;;2.2777777777777786;unknown
64862;BME280;62652;42.274;-71.436;2023-03-16T01:44:01;100330.0;;;2.3888888888888875;unknown
64862;BME280;62652;42.274;-71.436;2023-03-16T01:45:01;100330.0;;;2.3888888888888875;unknown
64862;BME280;62652;42.274;-71.436;2023-03-16T01:46:13;100340.0;;;2.3888888888888875;unknown
64862;BME280;62652;42.274;-71.436;2023-03-16T01:47:01;100320.0;;;2.2777777777777786;unknown
64862;BME280;62652;42.274;-71.436;2023-03-16T01:48:00;100330.0;;;2.2777777777777786;unknown
64862;BME280;62652;42.274;-71.436;2023-03-16T01:49:03;100330.0;;;2.3888888888888875;unknown
64862;BME280;62652;42.274;-71.436;2023-03-16T01:50:01;100340.0;;;2.3888888888888875;unknown
64862;BME280;62652;42.274;-71.436;2023-03-16T01:51:00;100340.0;;;2.3888888888888875;unknown
64862;BME280;62652;42.274;-71.436;2023-03-16T01:52:04;100340.0;;;2.3888888888888875;unknown
64862;BME280;62652;42.274;-71.436;2023-03-16T01:53:00;100340.0;;;2.2777777777777786;unknown
64862;BME280;62652;42.274;-71.436;2023-03-16T01:54:05;100340.0;;;2.3888888888888875;unknown
64862;BME280;62652;42.274;-71.436;2023-03-16T01:55:05;100340.0;;;2.3888888888888875;unknown
64862;BME280;62652;42.274;-71.436;2023-03-16T01:56:04;100340.0;;;2.3888888888888875;unknown
64862;BME280;62652;42.274;-71.436;2023-03-16T01:57:04;100340.0;;;2.3888888888888875;unknown
64862;BME280;62652;42.274;-71.436;2023-03-16T01:58:00;100340.0;;;2.2777777777777786;unknown
64862;BME280;62652;42.274;-71.436;2023-03-16T01:59:03;100340.0;;;2.2777777777777786;unknown
64862;BME280;62652;42.274;-71.436;2023-03-16T02:00:05;100350.0;;;2.2777777777777786;unknown
64862;BME280;62652;42.274;-71.436;2023-03-16T02:01:01;100340.0;;;2.3888888888888875;unknown
64862;BME280;62652;42.274;-71.436;2023-03-16T02:02:01;100360.0;;;2.2777777777777786;unknown
64862;BME280;62652;42.274;-71.436;2023-03-16T02:03:06;100340.0;;;2.2777777777777786;unknown
64862;BME280;62652;42.274;-71.436;2023-03-16T02:04:09;100350.0;;;2.3888888888888875;unknown
64862;BME280;62652;42.274;-71.436;2023-03-16T02:05:04;100350.0;;;2.2777777777777786;unknown
64862;BME280;62652;42.274;-71.436;2023-03-16T02:06:04;100350.0;;;2.3888888888888875;unknown
64862;BME280;62652;42.274;-71.436;2023-03-16T02:07:00;100350.0;;;2.3888888888888875;unknown
64862;BME280;62652;42.274;-71.436;2023-03-16T02:08:01;100350.0;;;2.3888888888888875;unknown
64862;BME280;62652;42.274;-71.436;2023-03-16T02:09:01;100350.0;;;2.3888888888888875;unknown
64862;BME280;62652;42.274;-71.436;2023-03-16T02:10:02;100350.0;;;2.3888888888888875;unknown
64862;BME280;62652;42.274;-71.436;2023-03-16T02:11:02;100350.0;;;2.3888888888888875;unknown
64862;BME280;62652;42.274;-71.436;2023-03-16T02:12:01;100360.0;;;2.3888888888888875;unknown
64862;BME280;62652;42.274;-71.436;2023-03-16T02:13:01;100350.0;;;2.3888888888888875;unknown
64862;BME280;62652;42.274;-71.436;2023-03-16T02:14:07;100360.0;;;2.3888888888888875;unknown
64862;BME280;62652;42.274;-71.436;2023-03-16T02:15:01;100350.0;;;2.3888888888888875;unknown
64862;BME280;62652;42.274;-71.436;2023-03-16T02:16:02;100360.0;;;2.3888888888888875;unknown
64862;BME280;62652;42.274;-71.436;2023-03-16T02:17:00;100370.0;;;2.3888888888888875;unknown
64862;BME280;62652;42.274;-71.436;2023-03-16T02:18:01;100360.0;;;2.3888888888888875;unknown
64862;BME280;62652;42.274;-71.436;2023-03-16T02:19:01;100360.0;;;2.2777777777777786;unknown
64862;BME280;62652;42.274;-71.436;2023-03-16T02:20:11;100360.0;;;2.2777777777777786;unknown
64862;BME280;62652;42.274;-71.436;2023-03-16T02:21:08;100360.0;;;2.2777777777777786;unknown
64862;BME280;62652;42.274;-71.436;2023-03-16T02:22:02;100360.0;;;2.2777777777777786;unknown
64862;BME280;62652;42.274;-71.436;2023-03-16T02:23:01;100370.0;;;2.3888888888888875;unknown
64862;BME280;62652;42.274;-71.436;2023-03-16T02:24:01;100360.0;;;2.3888888888888875;unknown
64862;BME280;62652;42.274;-71.436;2023-03-16T02:25:01;100370.0;;;2.2222222222222223;unknown
64862;BME280;62652;42.274;-71.436;2023-03-16T02:26:06;100370.0;;;2.2777777777777786;unknown
64862;BME280;62652;42.274;-71.436;2023-03-16T02:27:02;100370.0;;;2.2777777777777786;unknown
64862;BME280;62652;42.274;-71.436;2023-03-16T02:28:07;100370.0;;;2.2777777777777786;unknown
64862;BME280;62652;42.274;-71.436;2023-03-16T02:29:12;100370.0;;;2.2777777777777786;unknown
64862;BME280;62652;42.274;-71.436;2023-03-16T02:30:04;100370.0;;;2.2777777777777786;unknown
64862;BME280;62652;42.274;-71.436;2023-03-16T02:31:01;100370.0;;;2.2777777777777786;unknown
64862;BME280;62652;42.274;-71.436;2023-03-16T02:32:01;100370.0;;;2.2777777777777786;unknown
64862;BME280;62652;42.274;-71.436;2023-03-16T02:33:01;100370.0;;;2.2777777777777786;unknown
64862;BME280;62652;42.274;-71.436;2023-03-16T02:34:01;100380.0;;;2.2777777777777786;unknown
64862;BME280;62652;42.274;-71.436;2023-03-16T02:35:02;100370.0;;;2.2777777777777786;unknown
64862;BME280;62652;42.274;-71.436;2023-03-16T02:36:01;100370.0;;;2.2777777777777786;unknown
64862;BME280;62652;42.274;-71.436;2023-03-16T02:37:01;100380.0;;;2.2777777777777786;unknown
64862;BME280;62652;42.274;-71.436;2023-03-16T02:38:01;100370.0;;;2.2777777777777786;unknown
64862;BME280;62652;42.274;-71.436;2023-03-16T02:39:00;100380.0;;;2.3888888888888875;unknown
64862;BME280;62652;42.274;-71.436;2023-03-16T02:40:01;100380.0;;;2.3888888888888875;unknown
64862;BME280;62652;42.274;-71.436;2023-03-16T02:41:09;100380.0;;;2.3888888888888875;unknown
64862;BME280;62652;42.274;-71.436;2023-03-16T02:42:01;100390.0;;;2.3888888888888875;unknown
64862;BME280;62652;42.274;-71.436;2023-03-16T02:43:03;100380.0;;;2.2777777777777786;unknown
64862;BME280;62652;42.274;-71.436;2023-03-16T02:44:06;100390.0;;;2.2777777777777786;unknown
64862;BME280;62652;42.274;-71.436;2023-03-16T02:45:01;100380.0;;;2.3888888888888875;unknown
64862;BME280;62652;42.274;-71.436;2023-03-16T02:46:02;100390.0;;;2.3888888888888875;unknown
64862;BME280;62652;42.274;-71.436;2023-03-16T02:47:03;100390.0;;;2.3888888888888875;unknown
64862;BME280;62652;42.274;-71.436;2023-03-16T02:48:04;100400.0;;;2.2777777777777786;unknown
64862;BME280;62652;42.274;-71.436;2023-03-16T02:49:05;100390.0;;;2.2777777777777786;unknown
64862;BME280;62652;42.274;-71.436;2023-03-16T02:50:01;100400.0;;;2.3888888888888875;unknown
64862;BME280;62652;42.274;-71.436;2023-03-16T02:51:01;100390.0;;;2.3888888888888875;unknown
64862;BME280;62652;42.274;-71.436;2023-03-16T02:52:01;100390.0;;;2.3888888888888875;unknown
64862;BME280;62652;42.274;-71.436;2023-03-16T02:53:00;100390.0;;;2.2777777777777786;unknown
64862;BME280;62652;42.274;-71.436;2023-03-16T02:54:01;100390.0;;;2.3888888888888875;unknown
64862;BME280;62652;42.274;-71.436;2023-03-16T02:55:01;100390.0;;;2.2777777777777786;unknown
64862;BME280;62652;42.274;-71.436;2023-03-16T02:56:00;100390.0;;;2.2777777777777786;unknown
64862;BME280;62652;42.274;-71.436;2023-03-16T02:57:01;100390.0;;;2.2777777777777786;unknown
64862;BME280;62652;42.274;-71.436;2023-03-16T02:58:00;100390.0;;;2.2777777777777786;unknown
64862;BME280;62652;42.274;-71.436;2023-03-16T02:59:01;100390.0;;;2.2777777777777786;unknown
64862;BME280;62652;42.274;-71.436;2023-03-16T03:00:01;100400.0;;;2.2222222222222223;unknown
64862;BME280;62652;42.274;-71.436;2023-03-16T03:01:01;100400.0;;;2.2222222222222223;unknown
64862;BME280;62652;42.274;-71.436;2023-03-16T03:02:00;100400.0;;;2.2777777777777786;unknown
64862;BME280;62652;42.274;-71.436;2023-03-16T03:03:01;100400.0;;;2.2777777777777786;unknown
64862;BME280;62652;42.274;-71.436;2023-03-16T03:04:01;100400.0;;;2.2777777777777786;unknown
64862;BME280;62652;42.274;-71.436;2023-03-16T03:05:00;100400.0;;;2.2222222222222223;unknown
64862;BME280;62652;42.274;-71.436;2023-03-16T03:06:00;100400.0;;;2.2222222222222223;unknown
64862;BME280;62652;42.274;-71.436;2023-03-16T03:07:00;100410.0;;;2.2222222222222223;unknown
64862;BME280;62652;42.274;-71.436;2023-03-16T03:08:01;100400.0;;;2.2222222222222223;unknown
64862;BME280;62652;42.274;-71.436;2023-03-16T03:09:01;100400.0;;;2.2222222222222223;unknown
64862;BME280;62652;42.274;-71.436;2023-03-16T03:10:00;100400.0;;;2.2222222222222223;unknown
64862;BME280;62652;42.274;-71.436;2023-03-16T03:11:01;100400.0;;;2.2222222222222223;unknown
64862;BME280;62652;42.274;-71.436;2023-03-16T03:12:00;100410.0;;;2.2222222222222223;unknown
64862;BME280;62652;42.274;-71.436;2023-03-16T03:13:01;100410.0;;;2.2222222222222223;unknown
64862;BME280;62652;42.274;-71.436;2023-03-16T03:14:00;100400.0;;;2.2222222222222223;unknown
64862;BME280;62652;42.274;-71.436;2023-03-16T03:15:00;100400.0;;;2.2222222222222223;unknown
64862;BME280;62652;42.274;-71.436;2023-03-16T03:16:00;100400.0;;;2.2222222222222223;unknown
64862;BME280;62652;42.274;-71.436;2023-03-16T03:17:00;100400.0;;;2.2222222222222223;unknown
64862;BME280;62652;42.274;-71.436;2023-03-16T03:18:01;100410.0;;;2.2222222222222223;unknown
64862;BME280;62652;42.274;-71.436;2023-03-16T03:19:00;100400.0;;;2.1111111111111094;unknown
64862;BME280;62652;42.274;-71.436;2023-03-16T03:20:01;100410.0;;;2.1111111111111094;unknown
64862;BME280;62652;42.274;-71.436;2023-03-16T03:21:01;100410.0;;;2.1111111111111094;unknown
64862;BME280;62652;42.274;-71.436;2023-03-16T03:22:02;100410.0;;;2.1111111111111094;unknown
64862;BME280;62652;42.274;-71.436;2023-03-16T03:23:01;100410.0;;;2.1111111111111094;unknown
64862;BME280;62652;42.274;-71.436;2023-03-16T03:24:00;100410.0;;;2.1111111111111094;unknown
64862;BME280;62652;42.274;-71.436;2023-03-16T03:25:00;100400.0;;;2.1111111111111094;unknown
64862;BME280;62652;42.274;-71.436;2023-03-16T03:26:01;100410.0;;;2.000000000000001;unknown
64862;BME280;62652;42.274;-71.436;2023-03-16T03:27:01;100410.0;;;2.000000000000001;unknown
64862;BME280;62652;42.274;-71.436;2023-03-16T03:28:02;100400.0;;;2.000000000000001;unknown
64862;BME280;62652;42.274;-71.436;2023-03-16T03:29:00;100400.0;;;2.000000000000001;unknown
64862;BME280;62652;42.274;-71.436;2023-03-16T03:30:01;100410.0;;;2.000000000000001;unknown
64862;BME280;62652;42.274;-71.436;2023-03-16T03:31:00;100400.0;;;2.000000000000001;unknown
64862;BME280;62652;42.274;-71.436;2023-03-16T03:32:01;100400.0;;;2.000000000000001;unknown
64862;BME280;62652;42.274;-71.436;2023-03-16T03:33:01;100410.0;;;1.8888888888888882;unknown
64862;BME280;62652;42.274;-71.436;2023-03-16T03:34:01;100410.0;;;1.8888888888888882;unknown
64862;BME280;62652;42.274;-71.436;2023-03-16T03:35:00;100400.0;;;1.8888888888888882;unknown
64862;BME280;62652;42.274;-71.436;2023-03-16T03:36:00;100400.0;;;1.8888888888888882;unknown
64862;BME280;62652;42.274;-71.436;2023-03-16T03:37:00;100400.0;;;1.8888888888888882;unknown
64862;BME280;62652;42.274;-71.436;2023-03-16T03:38:00;100410.0;;;1.8888888888888882;unknown
64862;BME280;62652;42.274;-71.436;2023-03-16T03:39:01;100410.0;;;1.8888888888888882;unknown
64862;BME280;62652;42.274;-71.436;2023-03-16T03:40:01;100420.0;;;1.7777777777777795;unknown
64862;BME280;62652;42.274;-71.436;2023-03-16T03:41:01;100410.0;;;1.8888888888888882;unknown
64862;BME280;62652;42.274;-71.436;2023-03-16T03:42:01;100410.0;;;1.8888888888888882;unknown
64862;BME280;62652;42.274;-71.436;2023-03-16T03:43:01;100420.0;;;1.8888888888888882;unknown
64862;BME280;62652;42.274;-71.436;2023-03-16T03:44:02;100410.0;;;1.8888888888888882;unknown
64862;BME280;62652;42.274;-71.436;2023-03-16T03:45:00;100410.0;;;1.8888888888888882;unknown
64862;BME280;62652;42.274;-71.436;2023-03-16T03:46:02;100410.0;;;1.8888888888888882;unknown
64862;BME280;62652;42.274;-71.436;2023-03-16T03:47:00;100410.0;;;1.8888888888888882;unknown
64862;BME280;62652;42.274;-71.436;2023-03-16T03:48:00;100410.0;;;1.8888888888888882;unknown
64862;BME280;62652;42.274;-71.436;2023-03-16T03:49:01;100410.0;;;1.7777777777777795;unknown
64862;BME280;62652;42.274;-71.436;2023-03-16T03:50:01;100410.0;;;1.7777777777777795;unknown
64862;BME280;62652;42.274;-71.436;2023-03-16T03:51:01;100410.0;;;1.7777777777777795;unknown
64862;BME280;62652;42.274;-71.436;2023-03-16T03:52:01;100410.0;;;1.7777777777777795;unknown
64862;BME280;62652;42.274;-71.436;2023-03-16T03:53:01;100410.0;;;1.722222222222223;unknown
64862;BME280;62652;42.274;-71.436;2023-03-16T03:54:01;100410.0;;;1.7777777777777795;unknown
64862;BME280;62652;42.274;-71.436;2023-03-16T03:55:00;100410.0;;;1.7777777777777795;unknown
64862;BME280;62652;42.274;-71.436;2023-03-16T03:56:00;100410.0;;;1.7777777777777795;unknown
64862;BME280;62652;42.274;-71.436;2023-03-16T03:57:00;100410.0;;;1.722222222222223;unknown
64862;BME280;62652;42.274;-71.436;2023-03-16T03:58:00;100410.0;;;1.722222222222223;unknown
64862;BME280;62652;42.274;-71.436;2023-03-16T03:59:00;100410.0;;;1.722222222222223;unknown
64862;BME280;62652;42.274;-71.436;2023-03-16T04:00:00;100410.0;;;1.722222222222223;unknown
64862;BME280;62652;42.274;-71.436;2023-03-16T04:01:00;100410.0;;;1.6111111111111103;unknown
64862;BME280;62652;42.274;-71.436;2023-03-16T04:02:00;100410.0;;;1.722222222222223;unknown
64862;BME280;62652;42.274;-71.436;2023-03-16T04:03:00;100410.0;;;1.6111111111111103;unknown
64862;BME280;62652;42.274;-71.436;2023-03-16T04:04:00;100410.0;;;1.6111111111111103;unknown
64862;BME280;62652;42.274;-71.436;2023-03-16T04:05:01;100410.0;;;1.6111111111111103;unknown
64862;BME280;62652;42.274;-71.436;2023-03-16T04:06:00;100410.0;;;1.6111111111111103;unknown
64862;BME280;62652;42.274;-71.436;2023-03-16T04:07:01;100420.0;;;1.6111111111111103;unknown
64862;BME280;62652;42.274;-71.436;2023-03-16T04:08:01;100410.0;;;1.722222222222223;unknown
64862;BME280;62652;42.274;-71.436;2023-03-16T04:09:00;100420.0;;;1.722222222222223;unknown
64862;BME280;62652;42.274;-71.436;2023-03-16T04:10:00;100410.0;;;1.6111111111111103;unknown
64862;BME280;62652;42.274;-71.436;2023-03-16T04:11:01;100420.0;;;1.6111111111111103;unknown
64862;BME280;62652;42.274;-71.436;2023-03-16T04:12:01;100420.0;;;1.6111111111111103;unknown
64862;BME280;62652;42.274;-71.436;2023-03-16T04:13:00;100420.0;;;1.6111111111111103;unknown
64862;BME280;62652;42.274;-71.436;2023-03-16T04:14:00;100420.0;;;1.6111111111111103;unknown
64862;BME280;62652;42.274;-71.436;2023-03-16T04:15:01;100420.0;;;1.6111111111111103;unknown
64862;BME280;62652;42.274;-71.436;2023-03-16T04:16:01;100420.0;;;1.6111111111111103;unknown
64862;BME280;62652;42.274;-71.436;2023-03-16T04:17:01;100420.0;;;1.6111111111111103;unknown
64862;BME280;62652;42.274;-71.436;2023-03-16T04:18:01;100410.0;;;1.5000000000000016;unknown
64862;BME280;62652;42.274;-71.436;2023-03-16T04:19:00;100420.0;;;1.5000000000000016;unknown
64862;BME280;62652;42.274;-71.436;2023-03-16T04:20:00;100420.0;;;1.5000000000000016;unknown